createdAt,value
2022-08-04T00:04:59.400Z,16.96
2022-08-04T00:10:04.290Z,16.99
2022-08-04T00:15:10.959Z,17.00
2022-08-04T00:20:20.131Z,16.90
2022-08-04T00:25:22.827Z,16.74
2022-08-04T00:30:25.543Z,16.59
2022-08-04T00:35:29.367Z,16.48
2022-08-04T00:40:47.818Z,16.42
2022-08-04T00:46:19.126Z,16.36
2022-08-04T00:52:32.013Z,16.34
2022-08-04T00:57:33.595Z,16.33
2022-08-04T01:02:59.709Z,16.31
2022-08-04T01:08:28.696Z,16.29
2022-08-04T01:14:02.661Z,16.26
2022-08-04T01:19:16.107Z,16.23
2022-08-04T01:24:29.498Z,16.21
2022-08-04T01:29:47.342Z,16.18
2022-08-04T01:35:22.275Z,16.12
2022-08-04T01:40:45.079Z,16.06
2022-08-04T01:45:56.913Z,15.97
2022-08-04T01:51:04.068Z,15.83
2022-08-04T01:56:08.711Z,15.76
2022-08-04T02:01:12.966Z,15.75
2022-08-04T02:06:38.910Z,15.74
2022-08-04T02:11:47.372Z,15.73
2022-08-04T02:16:52.923Z,15.73
2022-08-04T02:22:07.758Z,15.73
2022-08-04T02:27:13.544Z,15.80
2022-08-04T02:32:25.443Z,15.85
2022-08-04T02:37:31.424Z,15.90
2022-08-04T02:42:34.271Z,15.95
2022-08-04T02:48:28.823Z,15.96
2022-08-04T02:53:03.621Z,15.98
2022-08-04T02:58:12.675Z,16.04
2022-08-04T03:03:30.992Z,16.10
2022-08-04T03:08:49.556Z,16.15
2022-08-04T03:14:23.834Z,16.21
2022-08-04T03:19:59.376Z,16.31
2022-08-04T03:25:07.730Z,16.47
2022-08-04T03:30:19.084Z,16.65
2022-08-04T03:35:40.159Z,16.84
2022-08-04T03:40:58.453Z,16.99
2022-08-04T03:46:19.885Z,17.11
2022-08-04T03:51:58.438Z,17.22
2022-08-04T03:57:29.935Z,17.33
2022-08-04T04:02:48.240Z,17.47
2022-08-04T04:08:18.937Z,17.61
2022-08-04T04:13:48.377Z,17.79
2022-08-04T04:19:12.681Z,18.00
2022-08-04T04:24:47.439Z,18.11
2022-08-04T04:30:21.665Z,18.28
2022-08-04T04:35:46.438Z,18.39
2022-08-04T04:41:13.275Z,18.51
2022-08-04T04:46:34.673Z,18.68
2022-08-04T04:51:48.048Z,18.87
2022-08-04T04:57:04.985Z,19.09
2022-08-04T05:02:28.699Z,19.24
2022-08-04T05:07:52.861Z,19.54
2022-08-04T05:14:35.802Z,19.89
2022-08-04T05:18:45.539Z,20.24
2022-08-04T05:23:54.005Z,20.61
2022-08-04T05:28:59.484Z,20.96
2022-08-04T05:34:09.384Z,21.29
2022-08-04T05:39:22.191Z,21.56
2022-08-04T05:44:26.588Z,21.84
2022-08-04T05:49:29.577Z,22.14
2022-08-04T05:54:34.345Z,22.48
2022-08-04T05:59:38.617Z,22.88
2022-08-04T06:04:42.893Z,23.13
2022-08-04T06:09:45.600Z,23.39
2022-08-04T06:14:53.508Z,23.74
2022-08-04T06:20:19.880Z,24.10
2022-08-04T06:25:28.278Z,24.46
2022-08-04T06:30:32.490Z,24.80
2022-08-04T06:35:35.398Z,25.05
2022-08-04T06:40:37.921Z,25.21
2022-08-04T06:45:42.516Z,25.40
2022-08-04T06:51:32.267Z,25.59
2022-08-04T06:56:15.224Z,25.84
2022-08-04T07:01:20.608Z,26.07
2022-08-04T07:06:25.303Z,26.36
2022-08-04T07:11:28.412Z,26.64
2022-08-04T07:16:42.237Z,26.97
2022-08-04T07:22:18.129Z,27.24
2022-08-04T07:27:08.603Z,27.50
2022-08-04T07:32:13.506Z,27.64
2022-08-04T07:37:16.602Z,27.81
2022-08-04T07:42:20.385Z,28.01
2022-08-04T07:47:25.446Z,28.21
2022-08-04T07:52:28.800Z,28.43
2022-08-04T07:57:40.053Z,28.63
2022-08-04T08:02:49.166Z,28.85
2022-08-04T08:07:54.290Z,29.06
2022-08-04T08:12:57.544Z,29.23
2022-08-04T08:18:00.909Z,29.33
2022-08-04T08:23:03.867Z,29.44
2022-08-04T08:28:06.580Z,29.62
2022-08-04T08:33:13.408Z,29.79
2022-08-04T08:38:21.374Z,29.96
2022-08-04T08:44:06.272Z,30.11
2022-08-04T08:50:00.172Z,30.21
2022-08-04T08:54:56.431Z,30.30
2022-08-04T09:00:31.590Z,30.49
2022-08-04T09:06:05.491Z,30.60
2022-08-04T09:11:13.560Z,30.84
2022-08-04T09:16:36.947Z,30.94
2022-08-04T09:22:03.694Z,30.94
2022-08-04T09:27:30.754Z,31.12
2022-08-04T09:32:47.270Z,31.39
2022-08-04T09:38:11.389Z,31.53
2022-08-04T09:44:42.342Z,31.69
2022-08-04T09:48:58.839Z,31.94
2022-08-04T09:54:09.246Z,32.01
2022-08-04T09:59:57.083Z,31.98
2022-08-04T10:05:03.182Z,32.10
2022-08-04T10:10:32.911Z,32.29
2022-08-04T10:15:56.844Z,32.38
2022-08-04T10:21:23.833Z,32.58
2022-08-04T10:26:58.446Z,32.77
2022-08-04T10:32:09.308Z,32.94
2022-08-04T10:37:53.213Z,33.13
2022-08-04T10:43:00.506Z,33.27
2022-08-04T10:48:07.679Z,33.30
2022-08-04T10:53:19.761Z,33.35
2022-08-04T10:58:48.132Z,33.59
2022-08-04T11:04:04.038Z,33.82
2022-08-04T11:09:07.368Z,34.00
2022-08-04T11:14:20.433Z,34.21
2022-08-04T11:20:18.670Z,34.51
2022-08-04T11:25:29.512Z,34.46
2022-08-04T11:30:41.105Z,34.52
2022-08-04T11:36:08.356Z,34.72
2022-08-04T11:41:17.738Z,34.78
2022-08-04T11:46:28.069Z,34.87
2022-08-04T11:51:32.811Z,34.93
2022-08-04T11:56:36.449Z,35.04
2022-08-04T12:01:56.159Z,35.03
2022-08-04T12:07:31.637Z,35.11
2022-08-04T12:12:41.788Z,35.22
2022-08-04T12:17:57.057Z,35.35
2022-08-04T12:23:04.263Z,35.47
2022-08-04T12:28:16.501Z,35.55
2022-08-04T12:34:02.987Z,35.56
2022-08-04T12:39:03.264Z,35.58
2022-08-04T12:44:37.227Z,35.90
2022-08-04T12:49:39.034Z,36.12
2022-08-04T12:54:46.224Z,35.92
2022-08-04T12:59:58.109Z,36.08
2022-08-04T13:05:05.619Z,36.16
2022-08-04T13:10:17.620Z,36.00
2022-08-04T13:15:22.968Z,35.69
2022-08-04T13:20:34.046Z,35.73
2022-08-04T13:26:43.169Z,35.97
2022-08-04T13:31:07.347Z,36.73
2022-08-04T13:36:10.391Z,37.49
2022-08-04T13:41:13.232Z,38.12
2022-08-04T13:46:27.794Z,38.90
2022-08-04T13:51:57.749Z,39.58
2022-08-04T13:57:00.131Z,40.32
2022-08-04T14:02:08.144Z,40.95
2022-08-04T14:07:18.063Z,41.47
2022-08-04T14:12:38.704Z,41.74
2022-08-04T14:17:46.763Z,41.77
2022-08-04T14:22:49.168Z,41.32
2022-08-04T14:27:55.743Z,41.01
2022-08-04T14:34:01.505Z,41.53
2022-08-04T14:38:51.942Z,42.25
2022-08-04T14:43:58.197Z,42.98
2022-08-04T14:49:10.932Z,43.46
2022-08-04T14:54:18.545Z,43.74
2022-08-04T14:59:21.981Z,44.33
2022-08-04T15:04:25.954Z,44.83
2022-08-04T15:09:28.885Z,45.09
2022-08-04T15:14:37.546Z,45.43
2022-08-04T15:19:40.529Z,45.85
2022-08-04T15:24:58.117Z,46.12
2022-08-04T15:30:05.130Z,46.77
2022-08-04T15:35:38.814Z,47.36
2022-08-04T15:41:09.672Z,47.55
2022-08-04T15:46:52.623Z,47.71
2022-08-04T15:52:18.156Z,47.60
2022-08-04T15:57:52.663Z,47.73
2022-08-04T16:02:57.978Z,47.67
2022-08-04T16:08:17.565Z,47.61
2022-08-04T16:13:26.720Z,47.53
2022-08-04T16:18:29.126Z,47.42
2022-08-04T16:24:02.181Z,46.59
2022-08-04T16:29:26.716Z,44.23
2022-08-04T16:34:53.928Z,42.29
2022-08-04T16:40:35.359Z,40.17
2022-08-04T16:45:48.911Z,38.30
2022-08-04T16:56:01.882Z,36.00
2022-08-04T17:01:32.633Z,35.37
2022-08-04T17:06:44.102Z,34.53
2022-08-04T17:11:47.788Z,34.14
2022-08-04T17:17:02.341Z,33.74
2022-08-04T17:22:10.148Z,33.11
2022-08-04T17:28:19.453Z,32.51
2022-08-04T17:32:40.293Z,31.85
2022-08-04T17:37:53.076Z,31.31
2022-08-04T17:44:02.785Z,30.83
2022-08-04T17:48:29.007Z,30.40
2022-08-04T17:54:01.618Z,30.02
2022-08-04T18:05:06.819Z,29.01
2022-08-04T18:10:32.791Z,28.44
2022-08-04T18:15:44.182Z,28.01
2022-08-04T18:20:51.590Z,27.59
2022-08-04T18:27:09.527Z,27.15
2022-08-04T18:32:12.033Z,26.76
2022-08-04T18:37:32.109Z,26.39
2022-08-04T18:42:41.786Z,26.02
2022-08-04T18:48:14.860Z,25.69
2022-08-04T18:53:17.515Z,25.38
2022-08-04T18:58:27.117Z,25.06
2022-08-04T19:03:31.434Z,24.78
2022-08-04T19:08:42.451Z,24.51
2022-08-04T19:21:10.314Z,23.98
2022-08-04T19:26:27.827Z,23.73
2022-08-04T19:31:34.290Z,23.51
2022-08-04T19:36:47.838Z,23.34
2022-08-04T19:42:05.637Z,23.17
2022-08-04T19:48:17.223Z,23.03
2022-08-04T19:52:34.061Z,22.87
2022-08-04T19:57:49.589Z,22.74
2022-08-04T20:02:52.256Z,22.61
2022-08-04T20:08:09.097Z,22.47
2022-08-04T20:13:11.578Z,22.35
2022-08-04T20:18:35.515Z,22.22
2022-08-04T20:23:48.484Z,22.09
2022-08-04T20:28:52.595Z,21.97
2022-08-04T20:34:14.081Z,21.84
2022-08-04T20:39:25.914Z,21.71
2022-08-04T20:44:31.789Z,21.63
2022-08-04T20:55:01.090Z,21.47
2022-08-04T21:00:09.753Z,21.40
2022-08-04T21:05:48.070Z,21.32
2022-08-04T21:10:56.061Z,21.24
2022-08-04T21:21:08.498Z,21.12
2022-08-04T21:26:21.742Z,21.06
2022-08-04T21:31:28.308Z,21.00
2022-08-04T21:36:34.475Z,20.91
2022-08-04T21:42:19.462Z,20.82
2022-08-04T21:47:07.357Z,20.69
2022-08-04T21:52:24.996Z,20.54
2022-08-04T21:57:27.640Z,20.38
2022-08-04T22:02:30.525Z,20.21
2022-08-04T22:07:50.050Z,20.06
2022-08-04T22:12:54.481Z,19.91
2022-08-04T22:17:59.545Z,19.81
2022-08-04T22:23:16.831Z,19.75
2022-08-04T22:28:21.648Z,19.71
2022-08-04T22:33:54.379Z,19.65
2022-08-04T22:38:55.142Z,19.59
2022-08-04T22:44:15.366Z,19.49
2022-08-04T22:49:23.882Z,19.40
2022-08-04T22:54:33.986Z,19.32
2022-08-04T23:00:08.989Z,19.23
2022-08-04T23:05:11.467Z,19.15
2022-08-04T23:10:24.410Z,19.09
2022-08-04T23:15:33.647Z,19.05
2022-08-04T23:20:39.450Z,19.02
2022-08-04T23:26:07.613Z,18.97
2022-08-04T23:31:19.889Z,18.88
2022-08-04T23:36:29.987Z,18.78
2022-08-04T23:41:53.791Z,18.68
2022-08-04T23:48:18.505Z,18.59
2022-08-04T23:52:43.602Z,18.48
2022-08-04T23:58:18.897Z,18.40
